sensor_id;sensor_type;location;lat;lon;timestamp;temperature;humidity
19256;DHT22;9762;52.490;13.410;2023-12-20T00:00:36;11.60;99.90
19256;DHT22;9762;52.490;13.410;2023-12-20T00:03:03;11.50;99.90
19256;DHT22;9762;52.490;13.410;2023-12-20T00:05:29;11.50;99.90
19256;DHT22;9762;52.490;13.410;2023-12-20T00:07:57;11.50;99.90
19256;DHT22;9762;52.490;13.410;2023-12-20T00:10:23;11.50;99.90
19256;DHT22;9762;52.490;13.410;2023-12-20T00:12:48;11.50;99.90
19256;DHT22;9762;52.490;13.410;2023-12-20T00:15:14;11.50;99.90
19256;DHT22;9762;52.490;13.410;2023-12-20T00:17:39;11.50;99.90
19256;DHT22;9762;52.490;13.410;2023-12-20T00:20:06;11.50;99.90
19256;DHT22;9762;52.490;13.410;2023-12-20T00:22:31;11.40;99.90
19256;DHT22;9762;52.490;13.410;2023-12-20T00:24:57;11.40;99.90
19256;DHT22;9762;52.490;13.410;2023-12-20T00:27:23;11.50;99.90
19256;DHT22;9762;52.490;13.410;2023-12-20T00:29:48;11.50;99.90
19256;DHT22;9762;52.490;13.410;2023-12-20T00:32:16;11.50;99.90
19256;DHT22;9762;52.490;13.410;2023-12-20T00:34:42;11.50;99.90
19256;DHT22;9762;52.490;13.410;2023-12-20T00:37:08;11.60;99.90
19256;DHT22;9762;52.490;13.410;2023-12-20T00:39:34;11.60;99.90
19256;DHT22;9762;52.490;13.410;2023-12-20T00:41:59;11.60;99.90
19256;DHT22;9762;52.490;13.410;2023-12-20T00:44:25;11.70;99.90
19256;DHT22;9762;52.490;13.410;2023-12-20T00:46:51;11.60;99.90
19256;DHT22;9762;52.490;13.410;2023-12-20T00:49:17;11.60;99.90
19256;DHT22;9762;52.490;13.410;2023-12-20T00:51:43;11.60;99.90
19256;DHT22;9762;52.490;13.410;2023-12-20T00:54:08;11.60;99.90
19256;DHT22;9762;52.490;13.410;2023-12-20T00:56:35;11.60;99.90
19256;DHT22;9762;52.490;13.410;2023-12-20T00:59:00;11.60;99.90
19256;DHT22;9762;52.490;13.410;2023-12-20T01:01:26;11.60;99.90
19256;DHT22;9762;52.490;13.410;2023-12-20T01:03:52;11.60;99.90
19256;DHT22;9762;52.490;13.410;2023-12-20T01:06:18;11.70;99.90
19256;DHT22;9762;52.490;13.410;2023-12-20T01:08:43;11.70;99.90
19256;DHT22;9762;52.490;13.410;2023-12-20T01:11:09;11.70;99.90
19256;DHT22;9762;52.490;13.410;2023-12-20T01:13:35;11.70;99.90
19256;DHT22;9762;52.490;13.410;2023-12-20T01:16:00;11.70;99.90
19256;DHT22;9762;52.490;13.410;2023-12-20T01:18:26;11.70;99.90
19256;DHT22;9762;52.490;13.410;2023-12-20T01:20:52;11.60;99.90
19256;DHT22;9762;52.490;13.410;2023-12-20T01:23:17;11.60;99.90
19256;DHT22;9762;52.490;13.410;2023-12-20T01:25:43;11.60;99.90
19256;DHT22;9762;52.490;13.410;2023-12-20T01:28:09;11.60;99.90
19256;DHT22;9762;52.490;13.410;2023-12-20T01:30:34;11.60;99.90
19256;DHT22;9762;52.490;13.410;2023-12-20T01:33:00;11.60;99.90
19256;DHT22;9762;52.490;13.410;2023-12-20T01:35:26;11.60;99.90
19256;DHT22;9762;52.490;13.410;2023-12-20T01:37:52;11.60;99.90
19256;DHT22;9762;52.490;13.410;2023-12-20T01:40:22;11.60;99.90
19256;DHT22;9762;52.490;13.410;2023-12-20T01:42:47;11.60;99.90
19256;DHT22;9762;52.490;13.410;2023-12-20T01:45:22;11.60;99.90
19256;DHT22;9762;52.490;13.410;2023-12-20T01:47:48;11.70;99.90
19256;DHT22;9762;52.490;13.410;2023-12-20T01:50:14;11.70;99.90
19256;DHT22;9762;52.490;13.410;2023-12-20T01:52:41;11.70;99.90
19256;DHT22;9762;52.490;13.410;2023-12-20T01:55:07;11.70;99.90
19256;DHT22;9762;52.490;13.410;2023-12-20T01:57:41;11.70;99.90
19256;DHT22;9762;52.490;13.410;2023-12-20T02:00:08;11.80;99.90
19256;DHT22;9762;52.490;13.410;2023-12-20T02:02:36;11.80;99.90
19256;DHT22;9762;52.490;13.410;2023-12-20T02:05:03;11.80;99.90
19256;DHT22;9762;52.490;13.410;2023-12-20T02:07:31;11.80;99.90
19256;DHT22;9762;52.490;13.410;2023-12-20T02:09:56;11.80;99.90
19256;DHT22;9762;52.490;13.410;2023-12-20T02:12:22;11.80;99.90
19256;DHT22;9762;52.490;13.410;2023-12-20T02:14:48;11.80;99.90
19256;DHT22;9762;52.490;13.410;2023-12-20T02:17:15;11.80;99.90
19256;DHT22;9762;52.490;13.410;2023-12-20T02:19:41;11.80;99.90
19256;DHT22;9762;52.490;13.410;2023-12-20T02:22:10;11.80;99.90
19256;DHT22;9762;52.490;13.410;2023-12-20T02:24:36;11.90;99.90
19256;DHT22;9762;52.490;13.410;2023-12-20T02:27:03;11.90;99.90
19256;DHT22;9762;52.490;13.410;2023-12-20T02:29:28;11.90;99.90
19256;DHT22;9762;52.490;13.410;2023-12-20T02:31:54;12.00;99.90
19256;DHT22;9762;52.490;13.410;2023-12-20T02:34:20;12.00;99.90
19256;DHT22;9762;52.490;13.410;2023-12-20T02:36:45;12.00;99.90
19256;DHT22;9762;52.490;13.410;2023-12-20T02:39:11;12.00;99.90
19256;DHT22;9762;52.490;13.410;2023-12-20T02:41:36;12.00;99.90
19256;DHT22;9762;52.490;13.410;2023-12-20T02:44:03;12.00;99.90
19256;DHT22;9762;52.490;13.410;2023-12-20T02:46:29;12.10;99.90
19256;DHT22;9762;52.490;13.410;2023-12-20T02:48:55;12.00;99.90
19256;DHT22;9762;52.490;13.410;2023-12-20T02:51:20;12.10;99.90
19256;DHT22;9762;52.490;13.410;2023-12-20T02:53:46;12.10;99.90
19256;DHT22;9762;52.490;13.410;2023-12-20T02:56:11;12.00;99.90
19256;DHT22;9762;52.490;13.410;2023-12-20T02:58:37;12.00;99.90
19256;DHT22;9762;52.490;13.410;2023-12-20T03:01:03;12.00;99.90
19256;DHT22;9762;52.490;13.410;2023-12-20T03:03:29;12.00;99.90
19256;DHT22;9762;52.490;13.410;2023-12-20T03:05:55;12.00;99.90
19256;DHT22;9762;52.490;13.410;2023-12-20T03:08:20;12.00;99.90
19256;DHT22;9762;52.490;13.410;2023-12-20T03:10:46;11.90;99.90
19256;DHT22;9762;52.490;13.410;2023-12-20T03:13:11;11.90;99.90
19256;DHT22;9762;52.490;13.410;2023-12-20T03:15:37;11.80;99.90
19256;DHT22;9762;52.490;13.410;2023-12-20T03:18:03;11.80;99.90
19256;DHT22;9762;52.490;13.410;2023-12-20T03:20:28;11.80;99.90
19256;DHT22;9762;52.490;13.410;2023-12-20T03:22:56;11.80;99.90
19256;DHT22;9762;52.490;13.410;2023-12-20T03:25:22;11.80;99.90
19256;DHT22;9762;52.490;13.410;2023-12-20T03:27:47;11.80;99.90
19256;DHT22;9762;52.490;13.410;2023-12-20T03:30:13;11.80;99.90
19256;DHT22;9762;52.490;13.410;2023-12-20T03:32:39;11.80;99.90
19256;DHT22;9762;52.490;13.410;2023-12-20T03:35:05;11.80;99.90
19256;DHT22;9762;52.490;13.410;2023-12-20T03:37:30;11.80;99.90
19256;DHT22;9762;52.490;13.410;2023-12-20T03:39:56;11.90;99.90
19256;DHT22;9762;52.490;13.410;2023-12-20T03:42:22;11.90;99.90
19256;DHT22;9762;52.490;13.410;2023-12-20T03:44:47;12.00;99.90
19256;DHT22;9762;52.490;13.410;2023-12-20T03:47:13;12.00;99.90
19256;DHT22;9762;52.490;13.410;2023-12-20T03:49:39;12.00;99.90
19256;DHT22;9762;52.490;13.410;2023-12-20T03:52:05;12.00;99.80
19256;DHT22;9762;52.490;13.410;2023-12-20T03:54:30;12.00;99.90
19256;DHT22;9762;52.490;13.410;2023-12-20T03:56:56;12.00;99.80
19256;DHT22;9762;52.490;13.410;2023-12-20T03:59:22;12.00;99.50
19256;DHT22;9762;52.490;13.410;2023-12-20T04:01:47;11.90;99.20
19256;DHT22;9762;52.490;13.410;2023-12-20T04:04:13;11.90;99.20
19256;DHT22;9762;52.490;13.410;2023-12-20T04:06:39;11.80;99.20
19256;DHT22;9762;52.490;13.410;2023-12-20T04:09:05;11.70;99.10
19256;DHT22;9762;52.490;13.410;2023-12-20T04:11:31;11.70;99.30
19256;DHT22;9762;52.490;13.410;2023-12-20T04:13:56;11.70;99.30
19256;DHT22;9762;52.490;13.410;2023-12-20T04:16:22;11.60;99.20
19256;DHT22;9762;52.490;13.410;2023-12-20T04:18:47;11.60;99.20
19256;DHT22;9762;52.490;13.410;2023-12-20T04:21:13;11.60;99.30
19256;DHT22;9762;52.490;13.410;2023-12-20T04:23:38;11.50;99.20
19256;DHT22;9762;52.490;13.410;2023-12-20T04:26:04;11.50;99.10
19256;DHT22;9762;52.490;13.410;2023-12-20T04:28:30;11.50;99.30
19256;DHT22;9762;52.490;13.410;2023-12-20T04:30:56;11.60;99.30
19256;DHT22;9762;52.490;13.410;2023-12-20T04:33:22;11.60;99.30
19256;DHT22;9762;52.490;13.410;2023-12-20T04:35:48;11.60;99.10
19256;DHT22;9762;52.490;13.410;2023-12-20T04:38:13;11.50;98.80
19256;DHT22;9762;52.490;13.410;2023-12-20T04:40:39;11.50;98.70
19256;DHT22;9762;52.490;13.410;2023-12-20T04:43:06;11.50;98.70
19256;DHT22;9762;52.490;13.410;2023-12-20T04:45:32;11.50;98.60
19256;DHT22;9762;52.490;13.410;2023-12-20T04:47:58;11.50;98.50
19256;DHT22;9762;52.490;13.410;2023-12-20T04:50:23;11.50;98.30
19256;DHT22;9762;52.490;13.410;2023-12-20T04:52:49;11.50;98.30
19256;DHT22;9762;52.490;13.410;2023-12-20T04:55:15;11.50;98.40
19256;DHT22;9762;52.490;13.410;2023-12-20T04:57:40;11.50;98.40
19256;DHT22;9762;52.490;13.410;2023-12-20T05:00:06;11.50;98.40
19256;DHT22;9762;52.490;13.410;2023-12-20T05:02:34;11.50;98.30
19256;DHT22;9762;52.490;13.410;2023-12-20T05:05:00;11.50;98.50
19256;DHT22;9762;52.490;13.410;2023-12-20T05:07:26;11.40;98.40
19256;DHT22;9762;52.490;13.410;2023-12-20T05:09:51;11.40;98.40
19256;DHT22;9762;52.490;13.410;2023-12-20T05:12:17;11.40;98.60
19256;DHT22;9762;52.490;13.410;2023-12-20T05:14:43;11.30;98.40
19256;DHT22;9762;52.490;13.410;2023-12-20T05:17:08;11.30;98.50
19256;DHT22;9762;52.490;13.410;2023-12-20T05:19:34;11.20;98.50
19256;DHT22;9762;52.490;13.410;2023-12-20T05:22:01;11.20;98.50
19256;DHT22;9762;52.490;13.410;2023-12-20T05:24:28;11.10;98.40
19256;DHT22;9762;52.490;13.410;2023-12-20T05:26:53;11.10;98.60
19256;DHT22;9762;52.490;13.410;2023-12-20T05:29:19;11.00;98.60
19256;DHT22;9762;52.490;13.410;2023-12-20T05:31:45;11.00;99.00
19256;DHT22;9762;52.490;13.410;2023-12-20T05:34:10;11.00;98.70
19256;DHT22;9762;52.490;13.410;2023-12-20T05:36:37;10.90;98.70
19256;DHT22;9762;52.490;13.410;2023-12-20T05:39:02;10.90;98.70
19256;DHT22;9762;52.490;13.410;2023-12-20T05:41:33;10.90;98.60
19256;DHT22;9762;52.490;13.410;2023-12-20T05:43:59;10.90;98.60
19256;DHT22;9762;52.490;13.410;2023-12-20T05:46:25;10.90;98.60
19256;DHT22;9762;52.490;13.410;2023-12-20T05:48:50;10.80;98.80
19256;DHT22;9762;52.490;13.410;2023-12-20T05:51:17;10.80;98.40
19256;DHT22;9762;52.490;13.410;2023-12-20T05:53:43;10.80;98.40
19256;DHT22;9762;52.490;13.410;2023-12-20T05:56:10;10.70;98.10
19256;DHT22;9762;52.490;13.410;2023-12-20T05:58:35;10.70;98.00
19256;DHT22;9762;52.490;13.410;2023-12-20T06:01:04;10.60;98.10
19256;DHT22;9762;52.490;13.410;2023-12-20T06:03:30;10.60;98.30
19256;DHT22;9762;52.490;13.410;2023-12-20T06:05:55;10.60;98.30
19256;DHT22;9762;52.490;13.410;2023-12-20T06:08:21;10.60;98.50
19256;DHT22;9762;52.490;13.410;2023-12-20T06:10:47;10.60;98.50
19256;DHT22;9762;52.490;13.410;2023-12-20T06:13:12;10.60;98.40
19256;DHT22;9762;52.490;13.410;2023-12-20T06:15:39;10.60;98.80
19256;DHT22;9762;52.490;13.410;2023-12-20T06:18:05;10.50;98.50
19256;DHT22;9762;52.490;13.410;2023-12-20T06:20:32;10.50;98.60
19256;DHT22;9762;52.490;13.410;2023-12-20T06:22:57;10.50;98.70
19256;DHT22;9762;52.490;13.410;2023-12-20T06:25:23;10.50;98.60
19256;DHT22;9762;52.490;13.410;2023-12-20T06:27:48;10.50;98.50
19256;DHT22;9762;52.490;13.410;2023-12-20T06:30:15;10.50;98.50
19256;DHT22;9762;52.490;13.410;2023-12-20T06:32:41;10.50;98.80
19256;DHT22;9762;52.490;13.410;2023-12-20T06:35:08;10.50;98.40
19256;DHT22;9762;52.490;13.410;2023-12-20T06:37:34;10.50;98.30
19256;DHT22;9762;52.490;13.410;2023-12-20T06:40:00;10.40;98.20
19256;DHT22;9762;52.490;13.410;2023-12-20T06:42:25;10.40;98.40
19256;DHT22;9762;52.490;13.410;2023-12-20T06:44:51;10.40;98.70
19256;DHT22;9762;52.490;13.410;2023-12-20T06:47:16;10.30;98.70
19256;DHT22;9762;52.490;13.410;2023-12-20T06:49:42;10.30;98.70
19256;DHT22;9762;52.490;13.410;2023-12-20T06:52:08;10.30;98.80
19256;DHT22;9762;52.490;13.410;2023-12-20T06:54:33;10.30;98.80
19256;DHT22;9762;52.490;13.410;2023-12-20T06:57:02;10.30;98.90
19256;DHT22;9762;52.490;13.410;2023-12-20T06:59:29;10.30;98.90
19256;DHT22;9762;52.490;13.410;2023-12-20T07:01:55;10.30;99.00
19256;DHT22;9762;52.490;13.410;2023-12-20T07:04:20;10.30;99.00
19256;DHT22;9762;52.490;13.410;2023-12-20T07:06:50;10.30;99.00
19256;DHT22;9762;52.490;13.410;2023-12-20T07:09:17;10.30;99.00
19256;DHT22;9762;52.490;13.410;2023-12-20T07:11:43;10.20;99.00
19256;DHT22;9762;52.490;13.410;2023-12-20T07:14:08;10.20;99.10
19256;DHT22;9762;52.490;13.410;2023-12-20T07:16:34;10.20;99.20
19256;DHT22;9762;52.490;13.410;2023-12-20T07:19:00;10.10;99.30
19256;DHT22;9762;52.490;13.410;2023-12-20T07:21:26;10.10;99.20
19256;DHT22;9762;52.490;13.410;2023-12-20T07:23:51;10.10;99.60
19256;DHT22;9762;52.490;13.410;2023-12-20T07:26:17;10.10;99.40
19256;DHT22;9762;52.490;13.410;2023-12-20T07:28:43;10.10;99.40
19256;DHT22;9762;52.490;13.410;2023-12-20T07:31:08;10.10;99.40
19256;DHT22;9762;52.490;13.410;2023-12-20T07:33:34;10.10;99.40
19256;DHT22;9762;52.490;13.410;2023-12-20T07:36:00;10.10;99.40
19256;DHT22;9762;52.490;13.410;2023-12-20T07:38:26;10.10;99.40
19256;DHT22;9762;52.490;13.410;2023-12-20T07:40:52;10.20;99.30
19256;DHT22;9762;52.490;13.410;2023-12-20T07:43:17;10.10;99.10
19256;DHT22;9762;52.490;13.410;2023-12-20T07:45:43;10.10;99.20
19256;DHT22;9762;52.490;13.410;2023-12-20T07:48:08;10.10;99.10
19256;DHT22;9762;52.490;13.410;2023-12-20T07:50:34;10.10;99.10
19256;DHT22;9762;52.490;13.410;2023-12-20T07:53:00;10.10;99.10
19256;DHT22;9762;52.490;13.410;2023-12-20T07:55:26;10.10;99.00
19256;DHT22;9762;52.490;13.410;2023-12-20T07:57:52;10.20;98.90
19256;DHT22;9762;52.490;13.410;2023-12-20T08:00:18;10.20;98.90
19256;DHT22;9762;52.490;13.410;2023-12-20T08:02:44;10.30;98.80
19256;DHT22;9762;52.490;13.410;2023-12-20T08:05:10;10.30;98.60
19256;DHT22;9762;52.490;13.410;2023-12-20T08:07:36;10.30;98.40
19256;DHT22;9762;52.490;13.410;2023-12-20T08:10:02;10.30;98.30
19256;DHT22;9762;52.490;13.410;2023-12-20T08:12:27;10.30;98.20
19256;DHT22;9762;52.490;13.410;2023-12-20T08:14:54;10.30;98.10
19256;DHT22;9762;52.490;13.410;2023-12-20T08:17:20;10.30;98.20
19256;DHT22;9762;52.490;13.410;2023-12-20T08:19:46;10.30;98.30
19256;DHT22;9762;52.490;13.410;2023-12-20T08:22:13;10.40;98.30
19256;DHT22;9762;52.490;13.410;2023-12-20T08:24:38;10.40;98.30
19256;DHT22;9762;52.490;13.410;2023-12-20T08:27:04;10.40;98.10
19256;DHT22;9762;52.490;13.410;2023-12-20T08:29:30;10.50;98.10
19256;DHT22;9762;52.490;13.410;2023-12-20T08:31:56;10.50;98.10
19256;DHT22;9762;52.490;13.410;2023-12-20T08:34:23;10.50;98.00
19256;DHT22;9762;52.490;13.410;2023-12-20T08:36:52;10.50;97.90
19256;DHT22;9762;52.490;13.410;2023-12-20T08:39:17;10.40;97.80
19256;DHT22;9762;52.490;13.410;2023-12-20T08:41:43;10.50;97.80
19256;DHT22;9762;52.490;13.410;2023-12-20T08:44:09;10.50;97.80
19256;DHT22;9762;52.490;13.410;2023-12-20T08:46:35;10.50;97.80
19256;DHT22;9762;52.490;13.410;2023-12-20T08:49:01;10.60;97.80
19256;DHT22;9762;52.490;13.410;2023-12-20T08:51:27;10.60;97.70
19256;DHT22;9762;52.490;13.410;2023-12-20T08:53:53;10.60;97.80
19256;DHT22;9762;52.490;13.410;2023-12-20T08:56:19;10.70;97.60
19256;DHT22;9762;52.490;13.410;2023-12-20T08:58:46;10.70;97.70
19256;DHT22;9762;52.490;13.410;2023-12-20T09:01:12;10.80;97.60
19256;DHT22;9762;52.490;13.410;2023-12-20T09:03:38;10.80;97.50
19256;DHT22;9762;52.490;13.410;2023-12-20T09:06:04;10.80;97.30
19256;DHT22;9762;52.490;13.410;2023-12-20T09:08:30;10.80;97.30
19256;DHT22;9762;52.490;13.410;2023-12-20T09:10:56;10.80;97.20
19256;DHT22;9762;52.490;13.410;2023-12-20T09:13:22;10.80;97.20
19256;DHT22;9762;52.490;13.410;2023-12-20T09:15:56;10.80;97.20
19256;DHT22;9762;52.490;13.410;2023-12-20T09:18:22;10.90;97.30
19256;DHT22;9762;52.490;13.410;2023-12-20T09:20:48;10.90;97.20
19256;DHT22;9762;52.490;13.410;2023-12-20T09:23:14;10.90;97.10
19256;DHT22;9762;52.490;13.410;2023-12-20T09:25:39;10.90;97.20
19256;DHT22;9762;52.490;13.410;2023-12-20T09:28:05;11.00;97.20
19256;DHT22;9762;52.490;13.410;2023-12-20T09:30:30;11.00;96.90
19256;DHT22;9762;52.490;13.410;2023-12-20T09:32:57;11.00;96.70
19256;DHT22;9762;52.490;13.410;2023-12-20T09:35:23;10.90;96.80
19256;DHT22;9762;52.490;13.410;2023-12-20T09:37:49;10.90;97.00
19256;DHT22;9762;52.490;13.410;2023-12-20T09:40:18;10.90;97.20
19256;DHT22;9762;52.490;13.410;2023-12-20T09:42:57;10.90;97.40
19256;DHT22;9762;52.490;13.410;2023-12-20T09:45:23;11.00;97.50
19256;DHT22;9762;52.490;13.410;2023-12-20T09:47:51;11.00;97.30
19256;DHT22;9762;52.490;13.410;2023-12-20T09:50:18;11.00;96.90
19256;DHT22;9762;52.490;13.410;2023-12-20T09:52:48;11.00;96.70
19256;DHT22;9762;52.490;13.410;2023-12-20T09:55:15;11.00;96.80
19256;DHT22;9762;52.490;13.410;2023-12-20T09:57:42;11.00;96.80
19256;DHT22;9762;52.490;13.410;2023-12-20T10:00:08;11.00;96.60
19256;DHT22;9762;52.490;13.410;2023-12-20T10:02:35;11.00;96.60
19256;DHT22;9762;52.490;13.410;2023-12-20T10:05:06;11.10;96.80
19256;DHT22;9762;52.490;13.410;2023-12-20T10:07:35;11.10;96.60
19256;DHT22;9762;52.490;13.410;2023-12-20T10:10:02;11.10;96.40
19256;DHT22;9762;52.490;13.410;2023-12-20T10:12:27;11.10;96.30
19256;DHT22;9762;52.490;13.410;2023-12-20T10:14:53;11.20;96.20
19256;DHT22;9762;52.490;13.410;2023-12-20T10:17:19;11.10;96.00
19256;DHT22;9762;52.490;13.410;2023-12-20T10:19:46;11.20;96.20
19256;DHT22;9762;52.490;13.410;2023-12-20T10:22:12;11.20;96.30
19256;DHT22;9762;52.490;13.410;2023-12-20T10:24:38;11.20;96.00
19256;DHT22;9762;52.490;13.410;2023-12-20T10:27:06;11.20;96.00
19256;DHT22;9762;52.490;13.410;2023-12-20T10:29:33;11.20;95.80
19256;DHT22;9762;52.490;13.410;2023-12-20T10:31:59;11.20;95.50
19256;DHT22;9762;52.490;13.410;2023-12-20T10:34:24;11.20;95.60
19256;DHT22;9762;52.490;13.410;2023-12-20T10:36:50;11.20;95.40
19256;DHT22;9762;52.490;13.410;2023-12-20T10:39:17;11.30;95.40
19256;DHT22;9762;52.490;13.410;2023-12-20T10:41:44;11.30;95.40
19256;DHT22;9762;52.490;13.410;2023-12-20T10:44:11;11.30;95.20
19256;DHT22;9762;52.490;13.410;2023-12-20T10:46:40;11.30;95.30
19256;DHT22;9762;52.490;13.410;2023-12-20T10:49:07;11.30;95.40
19256;DHT22;9762;52.490;13.410;2023-12-20T10:51:34;11.20;95.50
19256;DHT22;9762;52.490;13.410;2023-12-20T10:54:00;11.30;95.40
19256;DHT22;9762;52.490;13.410;2023-12-20T10:56:31;11.30;95.60
19256;DHT22;9762;52.490;13.410;2023-12-20T10:59:02;11.30;95.20
19256;DHT22;9762;52.490;13.410;2023-12-20T11:01:29;11.40;95.10
19256;DHT22;9762;52.490;13.410;2023-12-20T11:03:55;11.40;95.10
19256;DHT22;9762;52.490;13.410;2023-12-20T11:14:50;11.40;94.60
19256;DHT22;9762;52.490;13.410;2023-12-20T11:17:16;11.40;95.10
19256;DHT22;9762;52.490;13.410;2023-12-20T11:20:03;11.30;95.40
19256;DHT22;9762;52.490;13.410;2023-12-20T11:22:36;11.40;95.80
19256;DHT22;9762;52.490;13.410;2023-12-20T11:25:10;11.40;95.90
19256;DHT22;9762;52.490;13.410;2023-12-20T11:27:39;11.40;95.70
19256;DHT22;9762;52.490;13.410;2023-12-20T11:30:06;11.30;96.20
19256;DHT22;9762;52.490;13.410;2023-12-20T11:32:34;11.40;95.90
19256;DHT22;9762;52.490;13.410;2023-12-20T11:35:16;11.30;96.10
19256;DHT22;9762;52.490;13.410;2023-12-20T11:37:42;11.30;96.30
19256;DHT22;9762;52.490;13.410;2023-12-20T11:40:11;11.40;96.30
19256;DHT22;9762;52.490;13.410;2023-12-20T11:42:41;11.40;96.20
19256;DHT22;9762;52.490;13.410;2023-12-20T11:45:15;11.30;96.10
19256;DHT22;9762;52.490;13.410;2023-12-20T11:47:48;11.30;96.10
19256;DHT22;9762;52.490;13.410;2023-12-20T11:50:20;11.30;96.10
19256;DHT22;9762;52.490;13.410;2023-12-20T11:52:47;11.20;96.00
19256;DHT22;9762;52.490;13.410;2023-12-20T11:55:13;11.20;96.20
19256;DHT22;9762;52.490;13.410;2023-12-20T11:57:39;11.20;96.40
19256;DHT22;9762;52.490;13.410;2023-12-20T12:00:05;11.20;96.40
19256;DHT22;9762;52.490;13.410;2023-12-20T12:02:31;11.20;96.40
19256;DHT22;9762;52.490;13.410;2023-12-20T12:04:57;11.20;96.20
19256;DHT22;9762;52.490;13.410;2023-12-20T12:07:24;11.10;96.20
19256;DHT22;9762;52.490;13.410;2023-12-20T12:09:50;11.10;96.30
19256;DHT22;9762;52.490;13.410;2023-12-20T12:12:17;11.10;96.40
19256;DHT22;9762;52.490;13.410;2023-12-20T12:14:44;11.10;96.30
19256;DHT22;9762;52.490;13.410;2023-12-20T12:17:14;11.00;96.10
19256;DHT22;9762;52.490;13.410;2023-12-20T12:19:43;11.00;96.10
19256;DHT22;9762;52.490;13.410;2023-12-20T12:22:11;11.00;96.10
19256;DHT22;9762;52.490;13.410;2023-12-20T12:24:43;11.00;96.10
19256;DHT22;9762;52.490;13.410;2023-12-20T12:27:09;11.00;96.00
19256;DHT22;9762;52.490;13.410;2023-12-20T12:29:36;11.00;96.00
19256;DHT22;9762;52.490;13.410;2023-12-20T12:32:07;11.00;96.20
19256;DHT22;9762;52.490;13.410;2023-12-20T12:34:34;10.90;96.10
19256;DHT22;9762;52.490;13.410;2023-12-20T12:37:00;10.90;96.30
19256;DHT22;9762;52.490;13.410;2023-12-20T12:39:26;10.90;96.80
19256;DHT22;9762;52.490;13.410;2023-12-20T12:41:52;10.90;96.90
19256;DHT22;9762;52.490;13.410;2023-12-20T12:44:18;10.80;97.10
19256;DHT22;9762;52.490;13.410;2023-12-20T12:46:45;10.70;97.30
19256;DHT22;9762;52.490;13.410;2023-12-20T12:49:11;10.70;97.60
19256;DHT22;9762;52.490;13.410;2023-12-20T12:51:37;10.60;97.80
19256;DHT22;9762;52.490;13.410;2023-12-20T12:54:03;10.70;98.10
19256;DHT22;9762;52.490;13.410;2023-12-20T12:56:29;10.70;98.00
19256;DHT22;9762;52.490;13.410;2023-12-20T12:58:55;10.60;97.90
19256;DHT22;9762;52.490;13.410;2023-12-20T13:01:20;10.60;98.10
19256;DHT22;9762;52.490;13.410;2023-12-20T13:03:46;10.70;98.20
19256;DHT22;9762;52.490;13.410;2023-12-20T13:06:12;10.70;98.30
19256;DHT22;9762;52.490;13.410;2023-12-20T13:08:38;10.70;98.40
19256;DHT22;9762;52.490;13.410;2023-12-20T13:11:04;10.70;98.50
19256;DHT22;9762;52.490;13.410;2023-12-20T13:13:32;10.70;98.40
19256;DHT22;9762;52.490;13.410;2023-12-20T13:15:58;10.80;98.50
19256;DHT22;9762;52.490;13.410;2023-12-20T13:18:24;10.80;98.50
19256;DHT22;9762;52.490;13.410;2023-12-20T13:20:49;10.80;98.40
19256;DHT22;9762;52.490;13.410;2023-12-20T13:23:15;10.80;98.50
19256;DHT22;9762;52.490;13.410;2023-12-20T13:25:43;10.80;98.70
19256;DHT22;9762;52.490;13.410;2023-12-20T13:28:11;10.90;98.90
19256;DHT22;9762;52.490;13.410;2023-12-20T13:30:36;10.80;99.20
19256;DHT22;9762;52.490;13.410;2023-12-20T13:33:02;10.70;99.60
19256;DHT22;9762;52.490;13.410;2023-12-20T13:35:28;10.50;98.90
19256;DHT22;9762;52.490;13.410;2023-12-20T13:37:53;10.40;98.60
19256;DHT22;9762;52.490;13.410;2023-12-20T13:40:19;10.30;98.00
19256;DHT22;9762;52.490;13.410;2023-12-20T13:42:45;10.30;97.60
19256;DHT22;9762;52.490;13.410;2023-12-20T13:45:11;10.30;97.70
19256;DHT22;9762;52.490;13.410;2023-12-20T13:47:36;10.40;97.80
19256;DHT22;9762;52.490;13.410;2023-12-20T13:50:03;10.40;97.30
19256;DHT22;9762;52.490;13.410;2023-12-20T13:52:29;10.40;97.10
19256;DHT22;9762;52.490;13.410;2023-12-20T13:54:55;10.40;97.00
19256;DHT22;9762;52.490;13.410;2023-12-20T13:57:20;10.50;96.90
19256;DHT22;9762;52.490;13.410;2023-12-20T13:59:46;10.50;96.50
19256;DHT22;9762;52.490;13.410;2023-12-20T14:02:12;10.50;96.30
19256;DHT22;9762;52.490;13.410;2023-12-20T14:04:37;10.50;96.40
19256;DHT22;9762;52.490;13.410;2023-12-20T14:07:05;10.50;96.10
19256;DHT22;9762;52.490;13.410;2023-12-20T14:09:33;10.50;96.40
19256;DHT22;9762;52.490;13.410;2023-12-20T14:11:58;10.40;96.30
19256;DHT22;9762;52.490;13.410;2023-12-20T14:14:24;10.40;96.40
19256;DHT22;9762;52.490;13.410;2023-12-20T14:16:49;10.40;96.40
19256;DHT22;9762;52.490;13.410;2023-12-20T14:19:16;10.40;96.50
19256;DHT22;9762;52.490;13.410;2023-12-20T14:21:42;10.40;96.50
19256;DHT22;9762;52.490;13.410;2023-12-20T14:24:13;10.40;96.10
19256;DHT22;9762;52.490;13.410;2023-12-20T14:26:40;10.40;96.10
19256;DHT22;9762;52.490;13.410;2023-12-20T14:29:07;10.30;95.90
19256;DHT22;9762;52.490;13.410;2023-12-20T14:31:33;10.20;95.90
19256;DHT22;9762;52.490;13.410;2023-12-20T14:33:59;10.10;96.40
19256;DHT22;9762;52.490;13.410;2023-12-20T14:36:26;10.10;96.20
19256;DHT22;9762;52.490;13.410;2023-12-20T14:38:52;10.00;96.70
19256;DHT22;9762;52.490;13.410;2023-12-20T14:41:18;10.00;96.60
19256;DHT22;9762;52.490;13.410;2023-12-20T14:43:44;10.00;97.30
19256;DHT22;9762;52.490;13.410;2023-12-20T14:46:10;10.00;97.20
19256;DHT22;9762;52.490;13.410;2023-12-20T14:48:35;10.10;97.00
19256;DHT22;9762;52.490;13.410;2023-12-20T14:51:01;10.10;96.80
19256;DHT22;9762;52.490;13.410;2023-12-20T14:53:27;10.10;96.40
19256;DHT22;9762;52.490;13.410;2023-12-20T14:55:52;10.00;96.60
19256;DHT22;9762;52.490;13.410;2023-12-20T14:58:18;10.10;96.90
19256;DHT22;9762;52.490;13.410;2023-12-20T15:00:44;10.10;96.80
19256;DHT22;9762;52.490;13.410;2023-12-20T15:03:10;10.10;96.60
19256;DHT22;9762;52.490;13.410;2023-12-20T15:05:36;10.10;96.80
19256;DHT22;9762;52.490;13.410;2023-12-20T15:08:02;10.00;97.00
19256;DHT22;9762;52.490;13.410;2023-12-20T15:10:28;10.00;97.00
19256;DHT22;9762;52.490;13.410;2023-12-20T15:12:53;10.00;96.90
19256;DHT22;9762;52.490;13.410;2023-12-20T15:15:21;10.00;97.10
19256;DHT22;9762;52.490;13.410;2023-12-20T15:17:47;10.00;97.40
19256;DHT22;9762;52.490;13.410;2023-12-20T15:20:12;10.00;97.20
19256;DHT22;9762;52.490;13.410;2023-12-20T15:22:39;10.10;97.20
19256;DHT22;9762;52.490;13.410;2023-12-20T15:25:06;10.10;97.10
19256;DHT22;9762;52.490;13.410;2023-12-20T15:27:34;10.00;97.00
19256;DHT22;9762;52.490;13.410;2023-12-20T15:30:03;10.00;97.20
19256;DHT22;9762;52.490;13.410;2023-12-20T15:32:28;10.00;96.90